Pagrindinis puslapis
METAR-TAF:

METAR-TAF

Oro uostai :

Kuveitas, Kuveitas

platuma: 29-13N, ilguma: 047-59E, Aukštis: 55 m

Dabartinis oras

Ataskaita buvo paskelbta 31 minutes, ne 10:00 UTC
Vėjas 3 kt iš Pietvakarių
Temperatūra 41°C
Drėgmė 18%
Slėgis 1014 hPa
Matomumas: 7000 m

METAR: OKBK 141000Z 23003KT 7000 NSC 41/12 Q1014 NOSIG

Laikas: 13:31 (10:31 UTC)

Prognozė

Ataskaita buvo paskelbta 5 valandos ir 46 minutes, ne 04:45 UTC
Prognozė galioja nuo 14 metu 06 UTC su 15 metu 12 UTC
Vėjas 3 kt nuo kintamojo kryptimis
Matomumas: 7000 m

TAF: OKBK 140445Z 1406/1512 VRB03KT 7000 NSC

Orai ataskaitas ir orų prognozės (METAR, TAF).

turimą stotys yra geltonos ir raudonos taškus žemėlapyje.

Perkelti pele per norėdami pamatyti stoties vardą.

Tada spustelėkite, norėdami matyti oro stebėjimo ir prognozės.

Norėdami pakeisti žemėlapį: spustelėkite ant žalios mygtukų su juodo kryžiaus žemyn,; žalią mygtuką su brūkšneliu, jei norite nutolinti; arba žalių rodyklių gretimoms žemėlapius.


METAR-TAF: